Time;durP1;ratioP1;P1;durP2;ratioP2;P2;SDS_P1;SDS_P2;PMS_P1;PMS_P2;Temp;Humidity;BMP_temperature;BMP_pressure;BME280_temperature;BME280_humidity;BME280_pressure;Samples;Min_cycle;Max_cycle;Signal;HPM_P1;HPM_P2
2022/12/12 00:01:40;;;;;;;34.55;15.57;;;;;;;4.37;55.87;100574.59;4909314;28;98895;-71
2022/12/12 00:04:08;;;;;;;36.78;15.50;;;;;;;3.95;57.08;100567.25;4907348;28;99170;-72
2022/12/12 00:06:34;;;;;;;32.17;16.05;;;;;;;4.00;57.08;100568.09;4909005;28;98952;-72
2022/12/12 00:09:02;;;;;;;36.70;16.65;;;;;;;3.68;57.97;100564.94;4906050;28;99096;-71
2022/12/12 00:11:29;;;;;;;36.90;16.92;;;;;;;3.58;58.52;100554.59;4900513;28;97858;-71
2022/12/12 00:13:56;;;;;;;35.15;16.35;;;;;;;3.65;58.32;100544.09;4905339;28;99866;-71
2022/12/12 00:16:24;;;;;;;34.28;15.80;;;;;;;3.81;58.24;100546.50;4906722;28;99211;-72
2022/12/12 00:18:51;;;;;;;37.60;17.10;;;;;;;3.97;57.81;100547.19;4903505;28;96708;-71
2022/12/12 00:21:21;;;;;;;36.13;16.38;;;;;;;3.99;57.18;100556.78;4907054;28;98801;-71
2022/12/12 00:23:47;;;;;;;33.72;16.33;;;;;;;4.49;56.67;100546.53;4900276;28;99446;-73
2022/12/12 00:26:19;;;;;;;33.97;15.30;;;;;;;4.47;56.31;100551.78;4906722;28;99303;-72
2022/12/12 00:28:45;;;;;;;34.63;16.30;;;;;;;4.36;56.73;100556.31;4903905;28;96760;-72
2022/12/12 00:31:12;;;;;;;34.53;14.88;;;;;;;4.20;56.62;100554.78;4907074;28;96956;-72
2022/12/12 00:33:38;;;;;;;38.88;16.95;;;;;;;3.80;57.86;100554.38;4907202;28;98942;-74
2022/12/12 00:36:06;;;;;;;36.45;16.33;;;;;;;3.64;58.52;100547.56;4908570;28;99409;-72
2022/12/12 00:38:33;;;;;;;33.25;12.98;;;;;;;3.18;60.00;100542.78;4908900;28;96892;-72
2022/12/12 00:41:01;;;;;;;41.53;17.13;;;;;;;3.41;60.16;100548.69;4909213;28;96951;-73
2022/12/12 00:43:27;;;;;;;35.72;16.17;;;;;;;3.40;59.49;100541.72;4905413;28;98976;-72
2022/12/12 00:45:54;;;;;;;33.45;15.45;;;;;;;3.16;60.87;100548.03;4906685;28;98994;-73
2022/12/12 00:48:21;;;;;;;41.97;17.20;;;;;;;3.42;60.06;100549.53;4903193;28;97225;-73
2022/12/12 00:50:47;;;;;;;39.53;17.45;;;;;;;3.38;60.62;100551.31;4909095;28;96816;-74
2022/12/12 00:53:14;;;;;;;37.55;14.90;;;;;;;3.75;59.67;100546.56;4900176;28;100373;-73
2022/12/12 00:55:41;;;;;;;39.75;16.48;;;;;;;3.15;60.80;100558.50;4908659;28;99350;-72
2022/12/12 00:58:08;;;;;;;34.97;16.08;;;;;;;3.24;61.17;100558.41;4906045;28;96802;-73
2022/12/12 01:00:37;;;;;;;34.25;14.60;;;;;;;2.98;62.19;100555.13;4904916;28;98024;-74
2022/12/12 01:03:03;;;;;;;43.35;16.48;;;;;;;3.35;60.87;100560.94;4906291;28;97794;-72
2022/12/12 01:05:30;;;;;;;36.17;16.85;;;;;;;2.98;62.37;100561.22;4906020;28;97655;-73
2022/12/12 01:07:57;;;;;;;40.95;16.60;;;;;;;3.27;61.73;100571.44;4908657;28;96812;-74
2022/12/12 01:10:24;;;;;;;39.33;17.08;;;;;;;3.83;59.78;100575.25;4903662;28;98710;-75
2022/12/12 01:12:51;;;;;;;42.10;16.83;;;;;;;3.77;60.17;100572.69;4898405;28;98949;-72
2022/12/12 01:15:18;;;;;;;44.85;16.88;;;;;;;4.03;59.59;100581.13;4904146;28;99028;-74
2022/12/12 01:17:45;;;;;;;47.47;18.58;;;;;;;4.19;58.79;100574.84;4910160;28;96925;-75
2022/12/12 01:20:17;;;;;;;40.95;17.85;;;;;;;4.51;58.08;100576.16;4908888;28;98645;-76
2022/12/12 01:22:43;;;;;;;41.42;18.45;;;;;;;4.79;57.08;100572.28;4909202;28;99197;-72
2022/12/12 01:25:11;;;;;;;39.90;16.42;;;;;;;4.84;56.61;100567.84;4907801;28;99023;-72
2022/12/12 01:27:37;;;;;;;42.50;17.05;;;;;;;4.76;56.91;100570.56;4901850;28;101626;-74
2022/12/12 01:30:07;;;;;;;44.45;17.58;;;;;;;4.56;57.59;100572.59;4909662;28;96985;-72
2022/12/12 01:32:33;;;;;;;42.05;17.27;;;;;;;4.78;56.94;100573.16;4911557;28;98936;-72
2022/12/12 01:35:00;;;;;;;39.97;17.25;;;;;;;4.85;56.58;100571.31;4904634;28;98806;-72
2022/12/12 01:37:26;;;;;;;45.05;18.35;;;;;;;4.57;57.21;100579.56;4904627;28;96739;-73
2022/12/12 01:39:52;;;;;;;38.55;17.13;;;;;;;4.40;57.36;100586.75;4912118;28;96928;-72
2022/12/12 01:42:19;;;;;;;41.55;17.58;;;;;;;4.88;56.64;100579.13;4908836;28;98993;-73
2022/12/12 01:44:47;;;;;;;33.22;15.35;;;;;;;4.38;57.51;100589.41;4910944;28;101193;-72
2022/12/12 01:47:17;;;;;;;40.00;15.77;;;;;;;4.44;57.82;100582.38;4911631;28;97896;-72
2022/12/12 01:49:46;;;;;;;41.83;16.35;;;;;;;4.55;58.01;100577.84;4902227;28;96831;-73
2022/12/12 01:52:17;;;;;;;37.83;15.82;;;;;;;4.40;57.66;100579.78;4901883;28;99414;-72
2022/12/12 01:54:49;;;;;;;37.78;16.75;;;;;;;3.89;58.97;100581.28;4909564;28;98915;-72
2022/12/12 01:57:21;;;;;;;38.85;16.80;;;;;;;4.23;58.65;100586.13;4907494;28;96809;-73
2022/12/12 01:59:47;;;;;;;34.35;15.45;;;;;;;4.12;58.54;100583.63;4900206;28;96715;-73
2022/12/12 02:02:16;;;;;;;38.17;17.13;;;;;;;3.69;60.19;100585.84;4905362;28;98965;-72
2022/12/12 02:04:43;;;;;;;39.55;16.83;;;;;;;3.95;59.89;100580.34;4909220;28;98749;-73
2022/12/12 02:07:10;;;;;;;36.97;16.45;;;;;;;3.60;60.83;100567.66;4906255;28;97092;-73
2022/12/12 02:09:37;;;;;;;38.53;16.50;;;;;;;3.71;60.60;100554.47;4909136;28;96901;-74
2022/12/12 02:12:04;;;;;;;38.22;16.20;;;;;;;3.92;60.06;100549.00;4908863;28;99426;-73
2022/12/12 02:14:34;;;;;;;33.80;15.00;;;;;;;3.87;60.17;100550.81;4906533;28;98903;-71
2022/12/12 02:17:12;;;;;;;38.80;16.50;;;;;;;3.91;59.68;100545.53;4910825;28;97034;-70
2022/12/12 02:20:36;;;;;;;36.65;15.90;;;;;;;4.04;60.39;100569.78;4910578;28;98886;-72
2022/12/12 02:23:33;;;;;;;39.78;16.83;;;;;;;4.49;58.66;100570.09;4863726;28;99551;-72
2022/12/12 02:26:16;;;;;;;45.30;17.50;;;;;;;4.47;58.62;100569.22;4907469;28;98099;-73
2022/12/12 02:29:10;;;;;;;40.72;17.83;;;;;;;4.71;57.98;100576.75;4908612;28;97203;-73
2022/12/12 02:31:42;;;;;;;44.85;17.13;;;;;;;4.75;58.09;100566.22;4899744;28;97325;-72
2022/12/12 02:34:16;;;;;;;42.17;16.80;;;;;;;4.47;58.99;100572.72;4903852;28;98924;-72
2022/12/12 02:36:50;;;;;;;42.20;17.33;;;;;;;4.30;59.62;100572.06;4909607;28;98376;-71
2022/12/12 02:39:22;;;;;;;47.03;17.92;;;;;;;4.51;59.11;100571.81;4905847;28;96782;-72
2022/12/12 02:41:54;;;;;;;43.83;16.52;;;;;;;4.44;58.84;100574.53;4907059;28;97497;-73
2022/12/12 02:44:28;;;;;;;42.90;18.05;;;;;;;4.33;59.90;100574.66;4912381;28;98290;-72
2022/12/12 02:47:04;;;;;;;45.65;17.98;;;;;;;4.68;58.81;100568.94;4905641;28;99188;-72
2022/12/12 02:49:37;;;;;;;42.35;17.48;;;;;;;4.79;57.97;100574.91;4907364;28;96929;-72
2022/12/12 02:52:05;;;;;;;46.30;19.13;;;;;;;4.81;58.05;100568.75;4912585;28;97503;-71
2022/12/12 02:54:31;;;;;;;42.92;18.33;;;;;;;4.96;57.20;100569.41;4918047;28;98975;-71
2022/12/12 02:57:00;;;;;;;46.03;18.23;;;;;;;5.15;57.37;100579.56;4908439;28;98835;-72
2022/12/12 02:59:31;;;;;;;41.78;17.60;;;;;;;4.80;58.19;100572.25;4910341;28;96898;-73
2022/12/12 03:02:31;;;;;;;48.38;17.98;;;;;;;4.95;57.97;100576.38;4909943;28;97092;-71
2022/12/12 03:08:24;;;;;;;49.38;19.55;;;;;;;5.00;58.18;100582.41;4905673;28;96986;-72
2022/12/12 03:10:56;;;;;;;45.28;17.40;;;;;;;5.19;57.33;100577.75;4911740;28;97157;-71
2022/12/12 03:13:31;;;;;;;47.92;19.33;;;;;;;5.09;57.53;100579.66;4908792;28;97187;-71
2022/12/12 03:16:09;;;;;;;46.50;17.83;;;;;;;4.91;58.07;100577.34;4903247;28;97958;-72
2022/12/12 03:18:47;;;;;;;45.13;18.00;;;;;;;4.72;59.00;100579.38;4904120;28;98858;-74
2022/12/12 03:21:17;;;;;;;44.38;18.58;;;;;;;4.78;58.84;100575.78;4902727;28;97112;-73
2022/12/12 03:23:48;;;;;;;45.70;18.10;;;;;;;4.43;60.01;100573.66;4909486;28;96923;-73
2022/12/12 03:26:19;;;;;;;45.78;18.00;;;;;;;4.88;59.76;100585.22;4906378;28;99175;-72
2022/12/12 03:28:51;;;;;;;46.08;16.90;;;;;;;5.00;58.40;100585.03;4908707;28;99732;-73
2022/12/12 03:31:24;;;;;;;43.20;17.42;;;;;;;5.03;58.33;100585.00;4905370;28;96871;-73
2022/12/12 03:33:56;;;;;;;45.17;18.67;;;;;;;5.17;58.06;100585.66;4909645;28;98693;-72
2022/12/12 03:36:27;;;;;;;38.30;15.77;;;;;;;4.88;58.95;100579.97;4908621;28;98980;-73
2022/12/12 03:38:59;;;;;;;47.58;18.27;;;;;;;4.86;59.37;100579.13;4904415;28;98199;-73
2022/12/12 03:41:30;;;;;;;40.85;16.77;;;;;;;5.21;58.39;100587.31;4910046;28;98708;-73
2022/12/12 03:44:01;;;;;;;39.85;16.60;;;;;;;5.12;58.62;100582.22;4907626;28;97367;-73
2022/12/12 03:46:32;;;;;;;50.30;18.30;;;;;;;4.95;59.38;100573.78;4905826;28;100574;-73
2022/12/12 03:49:05;;;;;;;42.45;17.95;;;;;;;4.89;59.48;100583.47;4908060;28;98626;-73
2022/12/12 03:51:36;;;;;;;42.25;17.35;;;;;;;4.78;60.07;100581.03;4909236;28;97552;-72
2022/12/12 03:54:08;;;;;;;47.15;19.13;;;;;;;5.18;59.10;100574.28;4909265;28;97508;-72
2022/12/12 03:56:44;;;;;;;42.13;17.00;;;;;;;5.29;58.82;100578.47;4907864;28;99058;-71
2022/12/12 03:59:14;;;;;;;33.95;14.70;;;;;;;5.29;58.36;100583.72;4907364;28;99073;-72
2022/12/12 04:01:48;;;;;;;40.38;15.70;;;;;;;5.38;57.95;100578.34;4904554;28;96851;-73
2022/12/12 04:04:22;;;;;;;43.42;16.58;;;;;;;5.06;59.29;100579.69;4905429;28;96900;-73
2022/12/12 04:06:54;;;;;;;40.90;16.63;;;;;;;5.35;58.73;100584.47;4905213;28;98659;-72
2022/12/12 04:15:19;;;;;;;44.55;17.92;;;;;;;5.42;57.81;100587.84;4908798;28;97189;-73
2022/12/12 04:18:02;;;;;;;41.58;17.02;;;;;;;5.40;58.41;100581.78;4909166;28;98817;-73
2022/12/12 04:23:32;;;;;;;44.25;17.35;;;;;;;5.11;59.29;100585.75;4904600;28;96845;-71
2022/12/12 04:29:07;;;;;;;40.63;16.55;;;;;;;5.22;59.25;100577.72;4905184;28;97589;-72
2022/12/12 04:31:38;;;;;;;33.83;14.88;;;;;;;5.14;59.11;100580.44;4905948;28;99064;-71
2022/12/12 04:34:12;;;;;;;36.63;15.40;;;;;;;5.36;58.65;100577.47;4906819;28;97235;-72
2022/12/12 04:36:43;;;;;;;34.38;15.07;;;;;;;5.72;57.82;100568.97;4904204;28;96909;-71
2022/12/12 04:39:12;;;;;;;36.03;15.68;;;;;;;5.55;57.77;100571.91;4905764;28;98979;-72
2022/12/12 04:41:41;;;;;;;35.65;15.13;;;;;;;5.47;57.81;100580.78;4904397;28;100971;-72
2022/12/12 04:44:10;;;;;;;36.55;15.38;;;;;;;5.69;57.40;100576.03;4905236;28;97132;-71
2022/12/12 04:46:40;;;;;;;32.97;14.93;;;;;;;5.66;57.39;100571.69;4909322;28;97892;-73
2022/12/12 04:49:11;;;;;;;33.80;14.68;;;;;;;5.82;57.16;100580.16;4906264;28;99314;-73
2022/12/12 04:51:43;;;;;;;33.38;15.32;;;;;;;5.75;56.92;100571.53;4905100;28;99312;-72
2022/12/12 04:54:13;;;;;;;32.70;15.18;;;;;;;5.80;57.17;100581.94;4906802;28;96751;-73
2022/12/12 04:56:43;;;;;;;42.67;19.70;;;;;;;5.72;57.18;100574.19;4908041;28;96939;-72
2022/12/12 04:59:10;;;;;;;40.53;18.27;;;;;;;5.92;57.15;100576.47;4910471;28;99260;-74
2022/12/12 05:01:46;;;;;;;34.47;15.27;;;;;;;5.69;57.34;100579.53;4906776;28;98778;-74
2022/12/12 05:04:17;;;;;;;35.15;16.58;;;;;;;5.77;57.05;100582.88;4903746;28;97970;-73
2022/12/12 05:06:49;;;;;;;32.25;15.55;;;;;;;5.76;57.00;100585.50;4909944;28;98395;-74
2022/12/12 05:09:17;;;;;;;33.40;13.63;;;;;;;5.44;57.88;100583.47;4911542;28;98862;-74
2022/12/12 05:11:44;;;;;;;31.65;14.00;;;;;;;5.27;58.34;100593.34;4909850;28;97684;-74
2022/12/12 05:14:11;;;;;;;35.10;19.08;;;;;;;5.27;58.84;100596.84;4907132;28;99561;-73
2022/12/12 05:16:42;;;;;;;29.80;15.30;;;;;;;5.59;57.60;100591.03;4906925;28;96928;-72
2022/12/12 05:19:09;;;;;;;26.90;13.57;;;;;;;5.60;57.64;100591.03;4910815;28;99204;-72
2022/12/12 05:21:35;;;;;;;23.73;12.68;;;;;;;5.60;58.01;100595.41;4907678;28;98918;-72
2022/12/12 05:24:03;;;;;;;27.70;14.07;;;;;;;5.54;57.64;100590.25;4900518;28;96915;-72
2022/12/12 05:26:32;;;;;;;24.80;13.13;;;;;;;5.57;57.68;100584.97;4900472;28;96761;-72
2022/12/12 05:28:59;;;;;;;29.30;13.15;;;;;;;5.89;56.66;100585.28;4907070;28;99065;-73
2022/12/12 05:31:26;;;;;;;17.25;8.98;;;;;;;5.57;56.80;100584.97;4909529;28;98230;-75
2022/12/12 05:33:54;;;;;;;20.45;11.18;;;;;;;5.27;57.40;100591.59;4905522;28;97286;-73
2022/12/12 05:36:21;;;;;;;19.10;10.48;;;;;;;5.49;57.67;100594.72;4910410;28;96840;-71
2022/12/12 05:38:47;;;;;;;18.73;10.48;;;;;;;5.54;56.80;100596.38;4906696;28;99273;-73
2022/12/12 05:41:15;;;;;;;17.95;8.95;;;;;;;5.51;57.06;100592.97;4910983;28;99451;-72
2022/12/12 05:43:42;;;;;;;16.83;8.75;;;;;;;5.51;57.01;100588.53;4903772;28;97438;-71
2022/12/12 05:46:08;;;;;;;18.38;9.00;;;;;;;5.52;56.63;100589.41;4908194;28;96778;-72
2022/12/12 05:48:35;;;;;;;16.50;8.75;;;;;;;5.69;57.06;100595.25;4910578;28;99155;-72
2022/12/12 05:51:02;;;;;;;18.40;8.68;;;;;;;5.77;56.52;100593.34;4907796;28;97760;-72
2022/12/12 05:53:29;;;;;;;13.63;7.97;;;;;;;5.67;56.75;100591.78;4905598;28;98261;-70
2022/12/12 05:55:55;;;;;;;22.20;11.57;;;;;;;5.33;57.02;100596.72;4908799;28;97739;-72
2022/12/12 05:58:23;;;;;;;12.38;7.30;;;;;;;5.53;57.06;100601.63;4908804;28;99533;-73
2022/12/12 06:00:50;;;;;;;11.85;7.28;;;;;;;5.70;56.69;100596.13;4908325;28;98887;-72
2022/12/12 06:03:17;;;;;;;13.70;7.55;;;;;;;5.67;56.67;100599.66;4908473;28;96807;-76
2022/12/12 06:05:43;;;;;;;11.60;6.47;;;;;;;5.05;58.89;100591.09;4909323;28;98825;-73
2022/12/12 06:08:10;;;;;;;17.30;7.90;;;;;;;5.12;58.29;100600.56;4915533;28;98988;-74
2022/12/12 06:10:36;;;;;;;12.23;6.57;;;;;;;5.42;57.34;100600.97;4909082;28;97762;-73
2022/12/12 06:13:03;;;;;;;14.13;7.78;;;;;;;5.41;57.70;100604.47;4912164;28;97036;-71
2022/12/12 06:15:31;;;;;;;16.77;7.88;;;;;;;5.45;57.35;100606.13;4911805;28;96872;-73
2022/12/12 06:17:58;;;;;;;14.43;7.43;;;;;;;5.48;57.25;100600.84;4911664;28;97200;-73
2022/12/12 06:20:25;;;;;;;17.08;7.80;;;;;;;5.53;56.87;100599.00;4908493;28;99489;-74
2022/12/12 06:22:51;;;;;;;16.48;8.32;;;;;;;5.53;56.91;100609.50;4906555;28;97236;-73
2022/12/12 06:25:19;;;;;;;20.33;8.73;;;;;;;5.44;57.35;100605.31;4908103;28;97794;-72
2022/12/12 06:27:46;;;;;;;17.38;8.52;;;;;;;5.19;57.89;100614.41;4904298;28;97859;-71
2022/12/12 06:30:13;;;;;;;18.17;7.80;;;;;;;5.34;57.37;100611.56;4907925;28;98635;-72
2022/12/12 06:32:41;;;;;;;13.98;7.65;;;;;;;5.49;56.95;100616.56;4910901;28;97568;-73
2022/12/12 06:35:15;;;;;;;13.57;6.65;;;;;;;5.45;56.99;100611.38;4911586;28;97001;-72
2022/12/12 06:37:41;;;;;;;15.07;6.85;;;;;;;5.34;57.36;100615.94;4909275;28;99933;-72
2022/12/12 06:40:09;;;;;;;15.00;7.32;;;;;;;5.59;56.47;100618.13;4908241;28;99103;-72
2022/12/12 06:42:35;;;;;;;12.98;6.72;;;;;;;5.42;57.22;100621.94;4906209;28;96826;-72
2022/12/12 06:45:02;;;;;;;17.33;7.20;;;;;;;5.55;56.52;100628.69;4908747;28;96806;-75
2022/12/12 06:47:29;;;;;;;16.75;7.88;;;;;;;5.03;58.18;100626.03;4909630;28;98931;-75
2022/12/12 06:49:57;;;;;;;11.73;6.75;;;;;;;5.08;57.48;100627.69;4911474;28;98935;-74
2022/12/12 06:52:23;;;;;;;11.40;6.18;;;;;;;4.99;58.45;100633.06;4910150;28;96731;-72
2022/12/12 06:54:50;;;;;;;10.48;6.22;;;;;;;5.15;57.99;100639.81;4913742;28;96828;-74
2022/12/12 06:57:16;;;;;;;8.88;5.68;;;;;;;5.38;57.52;100635.97;4906010;28;99183;-74
2022/12/12 06:59:43;;;;;;;12.40;6.32;;;;;;;5.35;57.17;100638.63;4906815;28;99357;-72
2022/12/12 07:02:11;;;;;;;10.15;6.50;;;;;;;5.28;57.21;100644.84;4907313;28;97682;-72
2022/12/12 07:04:37;;;;;;;10.80;6.50;;;;;;;5.34;57.59;100644.75;4905043;28;99555;-73
2022/12/12 07:07:05;;;;;;;10.80;6.15;;;;;;;5.51;56.74;100638.34;4906995;28;98962;-73
2022/12/12 07:09:31;;;;;;;10.10;6.30;;;;;;;5.48;56.61;100648.03;4898007;28;99362;-72
2022/12/12 07:11:58;;;;;;;10.25;6.35;;;;;;;5.48;56.15;100645.41;4902537;28;96887;-73
2022/12/12 07:14:24;;;;;;;11.13;6.10;;;;;;;5.58;56.38;100647.84;4908664;28;98689;-73
2022/12/12 07:17:00;;;;;;;11.50;6.75;;;;;;;5.69;56.47;100650.31;4901305;28;98973;-72
2022/12/12 07:19:27;;;;;;;8.73;6.03;;;;;;;5.49;56.40;100644.53;4904410;28;99237;-74
2022/12/12 07:21:53;;;;;;;12.85;6.97;;;;;;;5.69;55.97;100655.53;4905297;28;96882;-72
2022/12/12 07:24:21;;;;;;;11.82;6.57;;;;;;;5.77;55.58;100660.66;4903999;28;97104;-75
2022/12/12 07:26:47;;;;;;;12.80;6.22;;;;;;;5.70;55.71;100659.03;4902306;28;99356;-73
2022/12/12 07:29:14;;;;;;;12.52;7.00;;;;;;;5.72;55.45;100658.09;4906259;28;99959;-73
2022/12/12 07:31:41;;;;;;;7.70;5.47;;;;;;;5.64;55.36;100665.25;4901820;28;96850;-72
2022/12/12 07:34:07;;;;;;;8.00;5.65;;;;;;;5.42;56.15;100669.09;4911184;28;99052;-71
2022/12/12 07:36:34;;;;;;;9.95;5.50;;;;;;;5.53;55.82;100661.91;4909972;28;99973;-74
2022/12/12 07:39:00;;;;;;;8.82;6.22;;;;;;;5.71;55.11;100672.09;4910572;28;98945;-72
2022/12/12 07:41:28;;;;;;;11.50;6.18;;;;;;;5.74;55.12;100668.56;4908061;28;96813;-72
2022/12/12 07:43:54;;;;;;;7.35;5.22;;;;;;;5.71;55.30;100663.38;4905950;28;96884;-74
2022/12/12 07:46:24;;;;;;;8.88;5.32;;;;;;;5.56;54.85;100675.00;4906897;28;98982;-73
2022/12/12 07:48:51;;;;;;;9.85;5.95;;;;;;;5.54;56.36;100674.13;4902275;28;98077;-73
2022/12/12 07:51:18;;;;;;;11.70;5.40;;;;;;;5.56;55.82;100675.84;4909081;28;96815;-71
2022/12/12 07:53:45;;;;;;;9.75;5.97;;;;;;;5.56;55.24;100672.38;4908067;28;96898;-73
2022/12/12 07:56:14;;;;;;;9.40;5.97;;;;;;;5.21;55.50;100675.53;4903360;28;99328;-72
2022/12/12 07:58:56;;;;;;;10.05;5.80;;;;;;;5.29;55.83;100680.66;4904602;28;99191;-74
2022/12/12 08:01:24;;;;;;;10.45;5.95;;;;;;;5.18;56.00;100684.31;4909480;28;96776;-73
2022/12/12 08:03:51;;;;;;;9.00;5.57;;;;;;;5.39;55.39;100688.34;4911176;28;96996;-72
2022/12/12 08:06:19;;;;;;;8.93;5.47;;;;;;;5.40;55.58;100683.97;4904800;28;98994;-73
2022/12/12 08:08:47;;;;;;;9.27;6.05;;;;;;;5.42;55.35;100684.81;4906266;28;99088;-72
2022/12/12 08:11:16;;;;;;;8.82;5.75;;;;;;;5.29;56.19;100691.13;4902751;28;96824;-72
2022/12/12 08:13:57;;;;;;;10.40;5.88;;;;;;;5.47;55.26;100696.97;4904032;28;96812;-73
2022/12/12 08:16:25;;;;;;;13.38;6.15;;;;;;;5.50;55.63;100698.69;4905811;28;98856;-73
2022/12/12 08:18:53;;;;;;;11.95;6.32;;;;;;;5.63;54.63;100701.97;4904039;28;99389;-73
2022/12/12 08:21:20;;;;;;;11.70;6.07;;;;;;;5.60;54.83;100710.72;4904175;28;96773;-73
2022/12/12 08:23:46;;;;;;;9.95;5.68;;;;;;;5.75;54.79;100707.88;4910057;28;97287;-73
2022/12/12 08:26:16;;;;;;;11.30;5.85;;;;;;;5.83;54.08;100702.50;4906020;28;98889;-71
2022/12/12 08:28:48;;;;;;;9.23;5.80;;;;;;;5.85;53.53;100705.94;4909969;28;99749;-73
2022/12/12 08:31:14;;;;;;;8.52;5.53;;;;;;;5.75;53.82;100713.13;4906944;28;96729;-74
2022/12/12 08:33:41;;;;;;;9.88;5.22;;;;;;;5.91;53.39;100713.75;4907058;28;96984;-72
2022/12/12 08:36:13;;;;;;;10.02;5.80;;;;;;;5.94;53.30;100711.94;4907724;28;99287;-72
2022/12/12 08:38:39;;;;;;;9.65;5.75;;;;;;;5.60;54.13;100710.72;4912956;28;98867;-73
2022/12/12 08:41:05;;;;;;;8.18;5.45;;;;;;;5.84;53.50;100712.94;4912877;28;96917;-72
2022/12/12 08:43:32;;;;;;;8.10;5.45;;;;;;;5.83;53.36;100719.13;4911293;28;97362;-72
2022/12/12 08:46:01;;;;;;;7.75;5.07;;;;;;;5.82;53.24;100721.75;4911266;28;99001;-72
2022/12/12 08:48:29;;;;;;;13.88;5.57;;;;;;;5.71;52.67;100719.28;4911081;28;99135;-71
2022/12/12 08:50:55;;;;;;;8.35;5.45;;;;;;;5.78;53.28;100728.78;4912091;28;96830;-73
2022/12/12 08:53:22;;;;;;;8.30;5.50;;;;;;;5.87;53.06;100731.31;4914927;28;97394;-73
2022/12/12 08:55:48;;;;;;;7.38;4.90;;;;;;;5.79;52.22;100727.03;4910021;28;98900;-72
2022/12/12 08:58:15;;;;;;;7.32;4.70;;;;;;;5.95;52.46;100733.81;4911979;28;98556;-73
2022/12/12 09:00:42;;;;;;;8.15;5.30;;;;;;;5.84;51.98;100741.78;4911053;28;96913;-72
2022/12/12 09:03:09;;;;;;;9.02;4.95;;;;;;;5.55;53.00;100749.25;4897853;28;99083;-73
2022/12/12 09:05:36;;;;;;;7.88;4.88;;;;;;;5.70;52.42;100743.78;4905616;28;99294;-72
2022/12/12 09:08:02;;;;;;;6.78;5.03;;;;;;;5.69;52.31;100751.69;4907493;28;98849;-73
2022/12/12 09:10:29;;;;;;;10.38;5.03;;;;;;;5.75;52.24;100757.69;4908760;28;97851;-74
2022/12/12 09:12:56;;;;;;;8.18;4.65;;;;;;;5.74;51.94;100745.47;4907610;28;99849;-72
2022/12/12 09:15:22;;;;;;;9.05;5.53;;;;;;;5.83;52.15;100757.56;4909767;28;98950;-73
2022/12/12 09:17:49;;;;;;;8.38;5.07;;;;;;;5.90;51.41;100752.25;4910017;28;98898;-74
2022/12/12 09:20:17;;;;;;;9.90;4.72;;;;;;;5.50;52.21;100759.81;4906405;28;97927;-72
2022/12/12 09:22:43;;;;;;;7.60;4.88;;;;;;;5.52;52.43;100760.66;4908606;28;97219;-72
2022/12/12 09:25:10;;;;;;;7.28;4.82;;;;;;;5.58;51.93;100762.31;4907236;28;101326;-73
2022/12/12 09:27:36;;;;;;;9.85;4.60;;;;;;;5.74;51.81;100765.56;4908166;28;102161;-73
2022/12/12 09:30:03;;;;;;;6.72;4.70;;;;;;;5.72;51.62;100769.97;4907800;28;99482;-72
2022/12/12 09:32:30;;;;;;;10.45;4.75;;;;;;;5.43;52.48;100770.41;4907043;28;97177;-74
2022/12/12 09:34:56;;;;;;;9.10;4.95;;;;;;;5.18;53.00;100768.13;4909169;28;97930;-72
2022/12/12 09:37:27;;;;;;;7.78;4.53;;;;;;;5.23;52.93;100765.44;4904856;28;98979;-71
2022/12/12 09:39:54;;;;;;;6.82;4.53;;;;;;;5.36;52.32;100766.16;4903488;28;97125;-72
2022/12/12 09:42:24;;;;;;;7.43;4.60;;;;;;;5.41;51.50;100769.56;4908208;28;97390;-72
2022/12/12 09:44:52;;;;;;;6.70;4.10;;;;;;;5.31;51.86;100768.84;4909091;28;99505;-73
2022/12/12 09:47:30;;;;;;;10.70;5.72;;;;;;;5.50;51.66;100757.22;4907673;28;100079;-73
2022/12/12 09:50:01;;;;;;;8.32;4.30;;;;;;;5.45;51.75;100764.25;4909742;28;97718;-73
2022/12/12 09:52:34;;;;;;;6.57;4.45;;;;;;;5.61;50.75;100757.03;4908210;28;97226;-73
2022/12/12 09:55:03;;;;;;;7.03;4.72;;;;;;;5.59;50.92;100761.44;4912168;28;100297;-75
2022/12/12 09:57:40;;;;;;;7.57;4.57;;;;;;;5.65;50.60;100755.22;4909835;28;96766;-71
2022/12/12 10:00:11;;;;;;;14.00;4.47;;;;;;;5.00;52.53;100764.84;4915779;28;97208;-73
2022/12/12 10:03:01;;;;;;;8.57;5.10;;;;;;;5.27;52.03;100768.88;4914868;28;96918;-73
2022/12/12 10:05:38;;;;;;;5.03;3.85;;;;;;;5.50;51.38;100757.22;4908875;28;99730;-74
2022/12/12 10:08:15;;;;;;;5.28;3.97;;;;;;;5.62;50.75;100758.78;4913202;28;98934;-73
2022/12/12 10:10:44;;;;;;;7.30;4.20;;;;;;;6.01;49.87;100757.31;4908686;28;97085;-73
2022/12/12 10:13:15;;;;;;;5.65;4.50;;;;;;;5.88;50.27;100754.03;4909071;28;96836;-73
2022/12/12 10:15:45;;;;;;;8.38;4.18;;;;;;;5.84;49.74;100757.53;4908126;28;99180;-74
2022/12/12 10:18:17;;;;;;;4.78;3.50;;;;;;;5.61;50.08;100767.53;4910636;28;98246;-74
2022/12/12 10:20:48;;;;;;;5.72;4.07;;;;;;;5.88;49.46;100761.88;4909424;28;96806;-73
2022/12/12 10:23:22;;;;;;;6.53;4.18;;;;;;;5.84;48.96;100760.16;4910588;28;96800;-73
2022/12/12 10:25:54;;;;;;;5.30;3.85;;;;;;;4.86;51.38;100765.03;4910573;28;98926;-76
2022/12/12 10:28:24;;;;;;;5.38;3.42;;;;;;;5.01;51.36;100766.59;4911508;28;97641;-73
2022/12/12 10:31:14;;;;;;;5.85;3.85;;;;;;;5.46;50.06;100765.97;4909394;28;97124;-74
2022/12/12 10:34:00;;;;;;;8.60;3.83;;;;;;;5.55;49.90;100771.09;4909789;28;96985;-73
2022/12/12 10:36:46;;;;;;;5.00;3.53;;;;;;;5.74;49.27;100768.19;4911200;28;99122;-72
2022/12/12 10:39:22;;;;;;;8.10;3.88;;;;;;;5.72;49.17;100768.22;4907944;28;99179;-73
2022/12/12 10:41:56;;;;;;;4.22;3.22;;;;;;;5.44;49.21;100764.28;4906998;28;96798;-72
2022/12/12 10:44:50;;;;;;;4.65;3.40;;;;;;;5.52;49.74;100765.03;4905275;28;98692;-74
2022/12/12 10:47:16;;;;;;;5.25;3.58;;;;;;;5.38;49.21;100761.75;4910925;28;100384;-73
2022/12/12 10:49:43;;;;;;;6.72;4.13;;;;;;;5.57;48.83;100771.09;4904934;28;98772;-72
2022/12/12 10:52:17;;;;;;;6.57;3.92;;;;;;;5.32;49.29;100760.06;4908129;28;97106;-72
2022/12/12 10:54:48;;;;;;;7.00;4.05;;;;;;;5.47;48.99;100764.22;4906404;28;97470;-72
2022/12/12 10:57:22;;;;;;;6.00;3.80;;;;;;;5.66;48.49;100763.06;4913532;28;99072;-73
2022/12/12 10:59:51;;;;;;;11.23;5.75;;;;;;;5.40;48.92;100770.44;4909427;28;98286;-73
2022/12/12 11:02:34;;;;;;;5.70;4.18;;;;;;;5.77;48.41;100766.41;4906858;28;97919;-72
2022/12/12 11:05:07;;;;;;;8.73;6.20;;;;;;;5.70;49.49;100771.78;4913563;28;98563;-72
2022/12/12 11:07:37;;;;;;;9.27;5.45;;;;;;;5.65;49.63;100763.94;4908080;28;98893;-72
2022/12/12 11:10:19;;;;;;;11.98;7.15;;;;;;;5.37;51.11;100771.38;4900035;28;101078;-72
2022/12/12 11:12:46;;;;;;;10.40;5.07;;;;;;;5.13;50.50;100769.94;4905000;28;98773;-75
2022/12/12 11:15:16;;;;;;;11.25;5.32;;;;;;;5.03;50.80;100760.47;4903391;28;98742;-73
2022/12/12 11:17:42;;;;;;;7.78;4.97;;;;;;;4.91;51.26;100771.09;4906275;28;99608;-72
2022/12/12 11:20:17;;;;;;;11.50;7.38;;;;;;;5.07;51.20;100753.41;4910905;28;97712;-73
2022/12/12 11:22:55;;;;;;;13.48;7.65;;;;;;;5.52;49.98;100760.66;4999698;28;98026;-71
2022/12/12 11:25:28;;;;;;;9.15;5.85;;;;;;;5.24;50.09;100756.72;4992590;28;96890;-71
2022/12/12 11:27:56;;;;;;;8.77;5.22;;;;;;;4.58;51.12;100753.16;4985811;28;99057;-72
2022/12/12 11:30:27;;;;;;;8.57;5.00;;;;;;;4.20;52.97;100757.00;4988629;28;97611;-73
2022/12/12 11:32:56;;;;;;;6.70;4.70;;;;;;;4.40;52.32;100762.91;4983183;28;97199;-73
2022/12/12 11:35:26;;;;;;;7.22;5.15;;;;;;;4.52;51.60;100763.69;4984842;28;97014;-73
2022/12/12 11:37:57;;;;;;;8.55;4.75;;;;;;;4.77;51.47;100766.03;4980051;28;99247;-72
2022/12/12 11:40:26;;;;;;;9.40;6.20;;;;;;;5.10;50.74;100772.59;4983867;28;97904;-73
2022/12/12 11:43:07;;;;;;;9.95;5.88;;;;;;;5.30;49.27;100772.34;4983785;28;97304;-71
2022/12/12 11:45:33;;;;;;;8.45;5.68;;;;;;;5.39;49.62;100779.19;4986673;28;99252;-71
2022/12/12 11:47:59;;;;;;;10.07;5.30;;;;;;;5.40;49.32;100783.53;4982579;28;98964;-72
2022/12/12 11:50:28;;;;;;;8.35;5.97;;;;;;;5.62;48.41;100771.88;4982362;28;99330;-72
2022/12/12 11:53:00;;;;;;;10.45;6.18;;;;;;;5.27;48.70;100780.22;4979952;28;96770;-72